Time;durP1;ratioP1;P1;durP2;ratioP2;P2;SDS_P1;SDS_P2;PMS_P1;PMS_P2;Temp;Humidity;BMP_temperature;BMP_pressure;BME280_temperature;BME280_humidity;BME280_pressure;Samples;Min_cycle;Max_cycle;Signal;HPM_P1;HPM_P2
2021/03/08 00:00:22;;;;;;;10.60;6.57;;;1.60;58.00;;;;;;4390278;32;20079;-43
2021/03/08 00:02:49;;;;;;;14.47;7.30;;;1.60;58.10;;;;;;4390396;32;20141;-42
2021/03/08 00:05:16;;;;;;;10.53;7.20;;;1.60;58.10;;;;;;4389048;32;20510;-43
2021/03/08 00:07:44;;;;;;;7.90;3.83;;;1.60;58.20;;;;;;4390324;32;20534;-42
2021/03/08 00:10:15;;;;;;;9.60;6.67;;;1.60;58.20;;;;;;4402074;32;20464;-42
2021/03/08 00:12:46;;;;;;;11.27;8.77;;;1.60;58.20;;;;;;4405259;32;20071;-41
2021/03/08 00:15:13;;;;;;;8.40;6.30;;;1.60;58.30;;;;;;4405149;32;20061;-43
2021/03/08 00:17:40;;;;;;;9.63;6.63;;;1.60;58.30;;;;;;4405106;32;20080;-43
2021/03/08 00:20:08;;;;;;;6.80;4.10;;;1.70;58.30;;;;;;4405439;32;20141;-43
2021/03/08 00:22:36;;;;;;;11.23;7.47;;;1.70;59.00;;;;;;4404888;32;20526;-43
2021/03/08 00:25:07;;;;;;;10.03;5.97;;;1.70;58.30;;;;;;4404885;32;20498;-42
2021/03/08 00:27:33;;;;;;;12.00;7.57;;;1.70;58.30;;;;;;4405226;32;20054;-42
2021/03/08 00:30:00;;;;;;;11.30;5.33;;;1.70;58.30;;;;;;4404723;32;20088;-42
2021/03/08 00:32:26;;;;;;;7.80;5.13;;;1.70;58.30;;;;;;4405184;32;20486;-42
2021/03/08 00:34:53;;;;;;;8.87;5.57;;;1.70;58.30;;;;;;4405233;32;20088;-41
2021/03/08 00:37:19;;;;;;;11.37;7.10;;;1.70;58.30;;;;;;4390779;32;20077;-41
2021/03/08 00:39:45;;;;;;;11.00;7.00;;;1.80;58.20;;;;;;4404815;32;20098;-46
2021/03/08 00:42:12;;;;;;;12.70;6.03;;;1.80;58.10;;;;;;4404446;32;20464;-42
2021/03/08 00:44:38;;;;;;;7.80;4.70;;;1.80;58.10;;;;;;4404783;32;20082;-36
2021/03/08 00:47:05;;;;;;;8.97;5.03;;;1.80;58.00;;;;;;4390354;32;20461;-43
2021/03/08 00:49:31;;;;;;;8.37;5.70;;;1.90;57.90;;;;;;4404633;32;20957;-41
2021/03/08 00:51:57;;;;;;;8.03;5.43;;;1.90;58.00;;;;;;4404296;32;20509;-42
2021/03/08 00:54:24;;;;;;;5.93;3.73;;;1.80;58.00;;;;;;4389795;32;20509;-42
2021/03/08 00:56:52;;;;;;;6.13;4.33;;;1.80;58.30;;;;;;4404567;32;20069;-41
2021/03/08 00:59:18;;;;;;;10.43;6.33;;;1.80;58.50;;;;;;4404431;32;20065;-41
2021/03/08 01:01:45;;;;;;;7.03;5.43;;;1.80;58.40;;;;;;4404725;32;20074;-41
2021/03/08 01:04:11;;;;;;;7.60;5.33;;;1.80;58.60;;;;;;4390538;32;20066;-42
2021/03/08 01:06:37;;;;;;;6.50;4.50;;;1.80;58.80;;;;;;4404567;32;20162;-42
2021/03/08 01:09:07;;;;;;;6.43;3.83;;;1.90;58.90;;;;;;4399645;32;20070;-42
2021/03/08 01:11:34;;;;;;;7.13;4.63;;;1.90;58.90;;;;;;4389489;32;20602;-40
2021/03/08 01:14:01;;;;;;;6.20;4.73;;;1.90;58.70;;;;;;4389473;32;20543;-42
2021/03/08 01:16:27;;;;;;;7.07;5.20;;;1.90;58.70;;;;;;4389163;32;20065;-41
2021/03/08 01:18:54;;;;;;;7.40;5.20;;;1.90;58.80;;;;;;4389165;32;20089;-41
2021/03/08 01:21:22;;;;;;;6.27;4.13;;;1.90;58.60;;;;;;4389026;32;20077;-41
2021/03/08 01:23:49;;;;;;;8.83;5.30;;;2.00;58.50;;;;;;4389142;32;20517;-41
2021/03/08 01:26:15;;;;;;;9.43;6.07;;;2.00;58.40;;;;;;4389307;32;20100;-42
2021/03/08 01:28:41;;;;;;;7.10;5.57;;;2.00;58.40;;;;;;4388941;32;20081;-38
2021/03/08 01:31:08;;;;;;;8.67;5.43;;;1.90;58.40;;;;;;4388900;32;20147;-42
2021/03/08 01:33:34;;;;;;;7.63;4.87;;;2.00;58.30;;;;;;4388862;32;20151;-42
2021/03/08 01:36:00;;;;;;;5.40;3.00;;;2.00;58.40;;;;;;4388984;32;20050;-42
2021/03/08 01:38:27;;;;;;;9.63;5.50;;;2.00;58.30;;;;;;4389011;32;20598;-41
2021/03/08 01:40:53;;;;;;;9.63;5.03;;;2.00;58.30;;;;;;4388980;32;20085;-41
2021/03/08 01:43:20;;;;;;;8.40;4.43;;;2.00;58.30;;;;;;4388566;32;20161;-42
2021/03/08 01:45:46;;;;;;;9.70;4.43;;;2.00;58.20;;;;;;4388979;32;20090;-41
2021/03/08 01:48:15;;;;;;;9.53;5.03;;;2.00;58.20;;;;;;4388641;32;20085;-39
2021/03/08 01:50:46;;;;;;;7.63;4.10;;;2.00;58.20;;;;;;4389020;32;20516;-41
2021/03/08 01:53:16;;;;;;;7.77;4.77;;;2.10;58.20;;;;;;4389032;32;20066;-41
2021/03/08 01:55:43;;;;;;;4.67;4.17;;;2.00;58.20;;;;;;4387237;32;20066;-38
2021/03/08 01:58:10;;;;;;;6.97;4.60;;;2.00;58.20;;;;;;4389023;32;20478;-40
2021/03/08 02:00:37;;;;;;;9.30;4.97;;;2.00;58.40;;;;;;4386871;32;20064;-39
2021/03/08 02:03:04;;;;;;;8.30;5.90;;;2.10;58.50;;;;;;4388886;32;20105;-41
2021/03/08 02:05:38;;;;;;;9.40;6.07;;;2.10;58.50;;;;;;4387222;32;20061;-42
2021/03/08 02:08:07;;;;;;;10.18;5.82;;;2.10;58.40;;;;;;4388768;32;20431;-40
2021/03/08 02:10:35;;;;;;;7.43;5.60;;;2.10;58.40;;;;;;4387089;32;20556;-40
2021/03/08 02:13:24;;;;;;;10.17;7.20;;;2.10;58.60;;;;;;4386892;32;20085;-41
2021/03/08 02:16:21;;;;;;;6.60;5.13;;;2.10;58.60;;;;;;4388505;32;20190;-41
2021/03/08 02:19:01;;;;;;;8.10;6.47;;;2.10;58.70;;;;;;4388126;32;20093;-41
2021/03/08 02:21:48;;;;;;;5.37;4.37;;;2.10;58.60;;;;;;4375126;32;20084;-41
2021/03/08 02:24:26;;;;;;;8.90;6.07;;;2.20;58.80;;;;;;4386789;32;20061;-39
2021/03/08 02:27:03;;;;;;;10.07;6.50;;;2.20;58.70;;;;;;4387964;32;20089;-42
2021/03/08 02:29:50;;;;;;;11.20;7.53;;;2.20;58.70;;;;;;4357949;32;20553;-41
2021/03/08 02:32:40;;;;;;;5.17;3.63;;;2.30;58.90;;;;;;4370316;32;20564;-42
2021/03/08 02:35:18;;;;;;;10.97;6.07;;;2.30;59.00;;;;;;4347868;32;20159;-41
2021/03/08 02:38:21;;;;;;;6.73;4.87;;;2.40;59.10;;;;;;4346839;32;20074;-41
2021/03/08 02:40:52;;;;;;;9.70;6.30;;;2.40;59.20;;;;;;4299015;33;20133;-42
2021/03/08 02:43:26;;;;;;;13.80;8.47;;;2.50;59.10;;;;;;4287442;33;20098;-42
2021/03/08 02:45:53;;;;;;;10.27;5.17;;;2.60;59.00;;;;;;4311864;33;20071;-42
2021/03/08 02:48:20;;;;;;;14.40;7.77;;;2.60;59.30;;;;;;4299397;33;20060;-41
2021/03/08 02:50:47;;;;;;;8.43;6.40;;;2.70;59.20;;;;;;4299202;33;20099;-41
2021/03/08 02:53:14;;;;;;;11.30;6.73;;;2.70;59.10;;;;;;4270217;33;20105;-42
2021/03/08 02:55:44;;;;;;;6.07;3.80;;;2.80;59.00;;;;;;4282460;33;20091;-42
2021/03/08 02:58:11;;;;;;;10.03;4.87;;;2.90;59.10;;;;;;4281998;33;20584;-41
2021/03/08 03:00:38;;;;;;;11.67;6.43;;;2.90;59.00;;;;;;4285772;33;20535;-42
2021/03/08 03:03:08;;;;;;;11.53;7.23;;;2.90;58.80;;;;;;4311001;33;20086;-41
2021/03/08 03:05:37;;;;;;;10.13;6.67;;;2.90;58.70;;;;;;4323596;33;20063;-42
2021/03/08 03:08:05;;;;;;;10.33;6.37;;;3.00;58.60;;;;;;4311052;33;20527;-42
2021/03/08 03:10:32;;;;;;;11.00;6.83;;;3.00;58.50;;;;;;4337005;33;20215;-42
2021/03/08 03:12:59;;;;;;;10.67;7.60;;;3.00;58.40;;;;;;4326064;33;20175;-42
2021/03/08 03:15:25;;;;;;;11.13;8.23;;;3.10;58.40;;;;;;4351704;32;20081;-41
2021/03/08 03:17:52;;;;;;;11.53;6.40;;;3.10;58.40;;;;;;4334607;32;20089;-42
2021/03/08 03:20:19;;;;;;;13.73;8.07;;;3.10;58.40;;;;;;4348494;32;20070;-42
2021/03/08 03:22:46;;;;;;;15.77;9.50;;;3.10;58.30;;;;;;4348711;32;20161;-42
2021/03/08 03:25:24;;;;;;;14.33;8.70;;;3.10;58.30;;;;;;4375353;32;20469;-41
2021/03/08 03:27:51;;;;;;;11.27;6.77;;;3.20;58.60;;;;;;4364363;32;20131;-42
2021/03/08 03:30:21;;;;;;;9.60;6.23;;;3.20;58.60;;;;;;4374029;32;20504;-38
2021/03/08 03:32:47;;;;;;;13.20;7.70;;;3.20;58.60;;;;;;4376002;32;20097;-43
2021/03/08 03:35:15;;;;;;;13.13;6.17;;;3.20;58.60;;;;;;4373832;32;20463;-42
2021/03/08 03:37:43;;;;;;;12.50;8.23;;;3.20;58.50;;;;;;4374135;32;20521;-43
2021/03/08 03:40:12;;;;;;;13.63;7.27;;;3.20;58.40;;;;;;4362166;32;20515;-42
2021/03/08 03:42:42;;;;;;;9.83;6.57;;;3.20;59.10;;;;;;4375676;32;20169;-42
2021/03/08 03:45:09;;;;;;;13.63;8.27;;;3.30;58.40;;;;;;4375733;32;20190;-40
2021/03/08 03:47:40;;;;;;;12.67;6.27;;;3.30;58.40;;;;;;4375120;32;20070;-41
2021/03/08 03:50:15;;;;;;;7.27;5.30;;;3.30;58.50;;;;;;4375628;32;20070;-41
2021/03/08 03:52:41;;;;;;;8.68;5.78;;;3.30;58.60;;;;;;4375058;32;20104;-42
2021/03/08 03:55:13;;;;;;;11.83;6.67;;;3.30;58.40;;;;;;4375306;32;20061;-42
2021/03/08 03:57:49;;;;;;;9.77;6.40;;;3.30;58.30;;;;;;4373827;32;20105;-42
2021/03/08 04:00:21;;;;;;;10.73;6.03;;;3.40;58.40;;;;;;4375558;32;20541;-41
2021/03/08 04:02:52;;;;;;;11.30;6.23;;;3.40;58.70;;;;;;4375970;32;20069;-42
2021/03/08 04:05:22;;;;;;;10.00;5.53;;;3.50;58.80;;;;;;4375503;32;20061;-42
2021/03/08 04:07:49;;;;;;;10.63;5.97;;;3.50;58.60;;;;;;4373774;32;20071;-42
2021/03/08 04:10:15;;;;;;;10.87;6.07;;;3.50;58.50;;;;;;4387370;32;20069;-42
2021/03/08 04:12:45;;;;;;;6.10;4.33;;;3.50;58.60;;;;;;4390235;32;20058;-41
2021/03/08 04:15:12;;;;;;;9.03;5.37;;;3.60;58.60;;;;;;4364206;32;20062;-42
2021/03/08 04:17:40;;;;;;;5.37;3.53;;;3.60;58.30;;;;;;4363610;32;20081;-40
2021/03/08 04:20:13;;;;;;;7.70;3.87;;;3.60;58.40;;;;;;4390016;32;20077;-39
2021/03/08 04:22:39;;;;;;;6.37;3.40;;;3.70;58.50;;;;;;4388873;32;20078;-41
2021/03/08 04:25:08;;;;;;;7.27;3.93;;;3.70;58.30;;;;;;4363862;32;20068;-41
2021/03/08 04:27:34;;;;;;;12.00;2.80;;;3.70;58.10;;;;;;4364112;32;20181;-41
2021/03/08 04:30:01;;;;;;;6.10;3.00;;;3.80;58.30;;;;;;4387081;32;20074;-41
2021/03/08 04:32:28;;;;;;;3.70;1.23;;;3.80;57.90;;;;;;4375816;32;20078;-42
2021/03/08 04:34:54;;;;;;;4.20;2.00;;;3.80;57.70;;;;;;4375941;32;20141;-41
2021/03/08 04:37:21;;;;;;;5.87;2.70;;;3.80;57.50;;;;;;4388370;32;20539;-42
2021/03/08 04:39:48;;;;;;;2.90;1.43;;;3.90;57.60;;;;;;4388853;32;20089;-42
2021/03/08 04:42:15;;;;;;;1.50;0.93;;;3.90;56.80;;;;;;4388744;32;20081;-42
2021/03/08 04:44:43;;;;;;;3.03;1.00;;;3.90;56.70;;;;;;4388711;32;20085;-43
2021/03/08 04:47:10;;;;;;;1.43;0.83;;;3.90;56.80;;;;;;4363507;32;20442;-43
2021/03/08 04:49:36;;;;;;;1.97;0.70;;;4.00;56.60;;;;;;4388280;32;20074;-42
2021/03/08 04:52:03;;;;;;;6.93;0.80;;;4.00;56.40;;;;;;4388609;32;20154;-39
2021/03/08 04:54:30;;;;;;;0.30;0.30;;;4.10;55.70;;;;;;4387587;32;20065;-43
2021/03/08 04:56:56;;;;;;;0.70;0.47;;;4.20;55.70;;;;;;4387937;32;20060;-40
2021/03/08 04:59:26;;;;;;;0.77;0.50;;;4.30;55.20;;;;;;4375562;32;20096;-33
2021/03/08 05:01:54;;;;;;;1.17;0.50;;;4.30;53.90;;;;;;4363661;32;20065;-36
2021/03/08 05:04:20;;;;;;;1.43;0.40;;;4.30;53.50;;;;;;4375666;32;20514;-36
2021/03/08 05:06:47;;;;;;;0.90;0.50;;;4.30;53.60;;;;;;4363364;32;20072;-34
2021/03/08 05:09:14;;;;;;;0.50;0.20;;;4.40;53.10;;;;;;4347978;32;20097;-35
2021/03/08 05:11:44;;;;;;;2.90;0.20;;;4.50;53.60;;;;;;4360429;32;20135;-33
2021/03/08 05:14:14;;;;;;;1.43;0.20;;;4.50;52.70;;;;;;4348751;32;20550;-35
2021/03/08 05:16:46;;;;;;;0.67;0.20;;;4.60;52.40;;;;;;4360502;32;20065;-36
2021/03/08 05:19:12;;;;;;;1.40;0.10;;;4.70;51.50;;;;;;4373080;32;20224;-37
2021/03/08 05:21:39;;;;;;;1.87;0.20;;;4.80;51.20;;;;;;4348348;32;20074;-35
2021/03/08 05:24:06;;;;;;;0.23;0.10;;;4.90;50.20;;;;;;4372697;32;20081;-34
2021/03/08 05:26:33;;;;;;;0.37;0.10;;;5.00;50.50;;;;;;4348120;32;20077;-35
2021/03/08 05:28:59;;;;;;;0.77;0.10;;;5.10;49.50;;;;;;4379047;32;20501;-35
2021/03/08 05:31:30;;;;;;;0.73;0.10;;;5.20;49.60;;;;;;4375416;32;20151;-35
2021/03/08 05:34:01;;;;;;;0.10;0.00;;;5.20;48.90;;;;;;4389420;32;20069;-36
2021/03/08 05:36:28;;;;;;;2.33;0.33;;;5.30;49.30;;;;;;4389044;32;20513;-35
2021/03/08 05:38:54;;;;;;;2.53;0.10;;;5.30;48.80;;;;;;4389254;32;20137;-35
2021/03/08 05:41:41;;;;;;;0.10;0.10;;;5.40;47.80;;;;;;4362375;32;20066;-36
2021/03/08 05:44:08;;;;;;;0.57;0.10;;;5.50;47.60;;;;;;4388858;32;20547;-38
2021/03/08 05:46:56;;;;;;;0.30;0.10;;;5.50;46.50;;;;;;4374752;32;20469;-35
2021/03/08 05:49:48;;;;;;;0.10;0.10;;;5.60;46.40;;;;;;4388806;32;20677;-35
2021/03/08 05:52:26;;;;;;;0.13;0.10;;;5.70;47.40;;;;;;4377317;32;20144;-35
2021/03/08 05:55:37;;;;;;;0.20;0.00;;;5.80;46.10;;;;;;4388993;32;20104;-34
2021/03/08 05:58:07;;;;;;;1.53;0.20;;;5.90;46.40;;;;;;4378114;32;20091;-35
2021/03/08 06:01:16;;;;;;;0.10;0.10;;;5.90;45.00;;;;;;4388408;32;20068;-39
2021/03/08 06:04:22;;;;;;;0.30;0.30;;;6.00;45.80;;;;;;4377719;32;20134;-39
2021/03/08 06:07:32;;;;;;;1.30;0.10;;;6.10;44.70;;;;;;4388235;32;21002;-36
2021/03/08 06:10:05;;;;;;;2.10;0.10;;;6.20;44.70;;;;;;4374607;32;20084;-38
2021/03/08 06:12:38;;;;;;;0.00;0.00;;;6.20;43.60;;;;;;4388129;32;20611;-35
2021/03/08 06:15:11;;;;;;;0.20;0.10;;;6.20;43.60;;;;;;4388642;32;20077;-41
2021/03/08 06:17:38;;;;;;;0.20;0.10;;;6.30;43.20;;;;;;4388863;32;20062;-39
2021/03/08 06:20:07;;;;;;;0.77;0.30;;;6.30;42.50;;;;;;4374610;32;20081;-42
2021/03/08 06:22:34;;;;;;;0.63;0.10;;;6.30;42.30;;;;;;4388105;32;20098;-39
2021/03/08 06:25:01;;;;;;;0.10;0.10;;;6.30;41.80;;;;;;4388129;32;20054;-40
2021/03/08 06:27:28;;;;;;;2.07;0.20;;;6.30;41.60;;;;;;4374333;32;20085;-35
2021/03/08 06:29:54;;;;;;;0.30;0.10;;;6.30;41.00;;;;;;4374158;32;20065;-42
2021/03/08 06:32:20;;;;;;;2.00;0.20;;;6.30;41.10;;;;;;4388327;32;20234;-39
2021/03/08 06:34:47;;;;;;;0.10;0.10;;;6.40;40.90;;;;;;4374132;32;20128;-40
2021/03/08 06:37:14;;;;;;;1.60;0.40;;;6.50;41.10;;;;;;4388351;32;20098;-40
2021/03/08 06:39:45;;;;;;;1.63;0.10;;;6.60;40.10;;;;;;4388071;32;20062;-37
2021/03/08 06:42:16;;;;;;;2.13;0.20;;;6.60;40.00;;;;;;4388120;32;20068;-39
2021/03/08 06:44:45;;;;;;;0.27;0.20;;;6.70;39.60;;;;;;4387812;32;20084;-39
2021/03/08 06:47:13;;;;;;;2.03;0.17;;;6.80;39.70;;;;;;4387932;32;20080;-39
2021/03/08 06:49:39;;;;;;;0.60;0.10;;;6.90;39.30;;;;;;4373885;32;20722;-39
2021/03/08 06:52:08;;;;;;;0.53;0.10;;;7.00;39.80;;;;;;4387531;32;20065;-36
2021/03/08 06:54:44;;;;;;;4.23;0.13;;;7.20;39.20;;;;;;4387984;32;20054;-39
2021/03/08 06:57:28;;;;;;;1.00;0.20;;;7.40;38.30;;;;;;4388235;32;20065;-38
2021/03/08 06:59:56;;;;;;;0.50;0.20;;;7.50;37.90;;;;;;4387731;32;20524;-38
2021/03/08 07:02:34;;;;;;;4.30;0.20;;;7.60;38.20;;;;;;4387954;32;20068;-36
2021/03/08 07:05:01;;;;;;;0.30;0.10;;;7.80;37.80;;;;;;4375420;32;20078;-36
2021/03/08 07:07:27;;;;;;;2.00;0.20;;;8.00;37.50;;;;;;4387798;32;20066;-34
2021/03/08 07:09:54;;;;;;;1.70;0.20;;;8.10;36.80;;;;;;4383767;32;20050;-36
2021/03/08 07:12:21;;;;;;;1.33;0.20;;;8.30;37.00;;;;;;4388919;32;20093;-36
2021/03/08 07:15:02;;;;;;;0.50;0.20;;;8.50;36.40;;;;;;4403230;32;20070;-37
2021/03/08 07:17:35;;;;;;;0.50;0.17;;;8.60;35.90;;;;;;4389401;32;20074;-37
2021/03/08 07:20:05;;;;;;;0.30;0.20;;;8.80;35.70;;;;;;4402686;32;20140;-41
2021/03/08 07:22:54;;;;;;;4.33;0.27;;;8.80;35.40;;;;;;4388613;32;20061;-41
2021/03/08 07:25:27;;;;;;;1.07;0.30;;;8.90;35.70;;;;;;4403208;32;20548;-41
2021/03/08 07:27:58;;;;;;;1.23;0.20;;;8.90;35.80;;;;;;4403100;32;20138;-42
2021/03/08 07:30:38;;;;;;;0.77;0.20;;;8.90;35.30;;;;;;4402627;32;20088;-39
2021/03/08 07:33:06;;;;;;;1.10;0.30;;;8.90;35.10;;;;;;4402672;32;20141;-41
2021/03/08 07:35:48;;;;;;;0.57;0.30;;;9.00;35.50;;;;;;4403173;32;20088;-41
2021/03/08 07:38:30;;;;;;;0.67;0.30;;;9.10;35.40;;;;;;4402671;32;20450;-42
2021/03/08 07:41:20;;;;;;;1.43;0.20;;;9.20;34.70;;;;;;4370028;32;20138;-41
2021/03/08 07:43:48;;;;;;;1.10;0.20;;;9.20;34.80;;;;;;4370035;32;20061;-41
2021/03/08 07:46:34;;;;;;;5.47;1.17;;;9.30;34.70;;;;;;4357720;32;20077;-41
2021/03/08 07:49:05;;;;;;;2.77;0.30;;;9.30;34.80;;;;;;4370471;32;20058;-43
2021/03/08 07:51:32;;;;;;;2.03;0.20;;;9.30;34.70;;;;;;4370096;32;20196;-44
2021/03/08 07:54:06;;;;;;;1.60;0.20;;;9.40;34.80;;;;;;4370120;32;20603;-45
2021/03/08 07:56:33;;;;;;;4.93;0.90;;;9.50;34.30;;;;;;4370387;32;20707;-44
2021/03/08 07:59:00;;;;;;;2.67;0.20;;;9.60;34.60;;;;;;4370588;32;20082;-45
2021/03/08 08:01:26;;;;;;;1.87;0.20;;;9.80;34.30;;;;;;4369718;32;20201;-45
2021/03/08 08:03:53;;;;;;;3.00;0.40;;;10.00;34.20;;;;;;4371412;32;20761;-45
2021/03/08 08:06:24;;;;;;;5.47;0.20;;;10.20;33.50;;;;;;4329851;33;20090;-46
2021/03/08 08:08:53;;;;;;;4.20;0.50;;;10.30;33.30;;;;;;4342729;33;20529;-47
2021/03/08 08:11:21;;;;;;;3.15;0.22;;;10.40;33.50;;;;;;4349518;32;20557;-45
2021/03/08 08:13:52;;;;;;;5.25;0.20;;;10.40;33.50;;;;;;4372690;32;20062;-45
2021/03/08 08:16:22;;;;;;;4.37;0.30;;;10.50;34.10;;;;;;4372593;32;20466;-46
2021/03/08 08:18:49;;;;;;;4.72;0.32;;;10.60;34.10;;;;;;4360306;32;20089;-47
2021/03/08 08:21:20;;;;;;;5.32;0.40;;;10.70;34.10;;;;;;4360360;32;20100;-45
2021/03/08 08:23:56;;;;;;;4.03;0.40;;;10.80;34.10;;;;;;4360408;32;20081;-46
2021/03/08 08:26:23;;;;;;;0.40;0.20;;;10.80;33.80;;;;;;4372695;32;20546;-46
2021/03/08 08:28:50;;;;;;;1.77;0.10;;;10.90;33.50;;;;;;4347145;32;20209;-45
2021/03/08 08:31:17;;;;;;;0.85;0.20;;;10.90;33.20;;;;;;4347615;32;20451;-46
2021/03/08 08:33:44;;;;;;;0.75;0.20;;;10.80;32.60;;;;;;4330046;33;20082;-45
2021/03/08 08:36:16;;;;;;;0.85;0.30;;;10.70;32.70;;;;;;4330323;33;20055;-44
2021/03/08 08:38:54;;;;;;;6.43;0.17;;;10.60;32.70;;;;;;4342590;33;20069;-45
2021/03/08 08:41:25;;;;;;;2.25;0.20;;;10.30;32.60;;;;;;4342427;33;20676;-44
2021/03/08 08:44:12;;;;;;;2.90;0.20;;;10.00;33.10;;;;;;4349968;32;20131;-43
2021/03/08 08:46:40;;;;;;;0.33;0.30;;;9.70;33.70;;;;;;4356803;32;20074;-43
2021/03/08 08:49:20;;;;;;;1.80;0.10;;;9.40;34.20;;;;;;4356808;32;20215;-42
2021/03/08 08:51:58;;;;;;;0.97;0.20;;;9.10;35.10;;;;;;4344971;32;20066;-44
2021/03/08 08:54:27;;;;;;;0.57;0.10;;;9.00;35.30;;;;;;4357093;32;20059;-44
2021/03/08 08:57:15;;;;;;;3.53;0.30;;;8.80;35.60;;;;;;4356903;32;20067;-44
2021/03/08 08:59:50;;;;;;;0.77;0.20;;;8.70;35.80;;;;;;4356442;32;20073;-44
2021/03/08 09:02:22;;;;;;;4.97;0.20;;;8.60;36.10;;;;;;4357238;32;20070;-43
2021/03/08 09:04:49;;;;;;;6.80;0.30;;;8.60;36.40;;;;;;4374134;32;20061;-43
2021/03/08 09:07:25;;;;;;;1.90;0.20;;;8.50;36.70;;;;;;4374812;32;20123;-45
2021/03/08 09:09:59;;;;;;;4.67;0.93;;;8.60;37.00;;;;;;4372821;32;20095;-42
2021/03/08 09:12:33;;;;;;;5.00;0.30;;;8.60;36.70;;;;;;4391373;32;20073;-42
2021/03/08 09:15:14;;;;;;;0.30;0.20;;;8.60;36.90;;;;;;4372978;32;20069;-45
2021/03/08 09:17:48;;;;;;;1.37;0.30;;;8.60;36.70;;;;;;4374698;32;20553;-43
2021/03/08 09:20:15;;;;;;;2.20;0.17;;;8.60;36.70;;;;;;4374117;32;20176;-43
2021/03/08 09:22:49;;;;;;;3.43;0.60;;;8.60;36.90;;;;;;4386803;32;20453;-43
2021/03/08 09:25:20;;;;;;;2.90;0.20;;;8.60;37.00;;;;;;4386593;32;20066;-43
2021/03/08 09:27:49;;;;;;;1.20;0.27;;;8.60;37.20;;;;;;4386766;32;20070;-44
2021/03/08 09:30:21;;;;;;;8.20;0.43;;;8.60;37.50;;;;;;4361510;32;20131;-44
2021/03/08 09:33:05;;;;;;;1.33;0.20;;;8.50;37.60;;;;;;4386282;32;20058;-43
2021/03/08 09:35:53;;;;;;;2.13;0.30;;;8.40;37.60;;;;;;4386530;32;20150;-43
2021/03/08 09:38:25;;;;;;;0.50;0.30;;;8.20;38.00;;;;;;4373349;32;20093;-43
2021/03/08 09:40:56;;;;;;;0.87;0.13;;;8.20;38.10;;;;;;4361570;32;20201;-42
2021/03/08 09:43:25;;;;;;;0.60;0.30;;;8.10;38.20;;;;;;4386373;32;20072;-41
2021/03/08 09:46:12;;;;;;;6.73;0.40;;;8.10;38.20;;;;;;4381069;32;20133;-43
2021/03/08 09:48:41;;;;;;;0.30;0.10;;;8.10;38.10;;;;;;4390261;32;20053;-42
2021/03/08 09:51:15;;;;;;;0.37;0.13;;;8.00;37.90;;;;;;4358796;32;20110;-42
2021/03/08 09:53:54;;;;;;;1.25;0.40;;;8.00;38.40;;;;;;4358744;32;20062;-42
2021/03/08 09:56:23;;;;;;;1.77;0.20;;;8.00;38.40;;;;;;4371082;32;20166;-42
2021/03/08 09:59:09;;;;;;;0.73;0.10;;;8.00;38.20;;;;;;4358861;32;20084;-43
2021/03/08 10:01:36;;;;;;;0.97;0.20;;;8.00;37.80;;;;;;4341341;33;20079;-40
2021/03/08 10:04:03;;;;;;;1.80;0.20;;;7.90;38.30;;;;;;4341177;33;20163;-41
2021/03/08 10:06:31;;;;;;;1.60;0.20;;;7.90;38.50;;;;;;4329160;33;20085;-38
2021/03/08 10:08:59;;;;;;;0.30;0.20;;;7.80;38.70;;;;;;4341096;33;20058;-40
2021/03/08 10:11:30;;;;;;;2.77;0.30;;;7.80;38.80;;;;;;4328909;33;20059;-40
2021/03/08 10:13:57;;;;;;;1.60;0.20;;;7.80;38.90;;;;;;4340762;33;20077;-40
2021/03/08 10:16:28;;;;;;;2.87;0.30;;;7.80;39.00;;;;;;4340766;33;20067;-39
2021/03/08 10:18:55;;;;;;;3.30;0.30;;;7.70;39.00;;;;;;4341013;33;20088;-40
2021/03/08 10:21:22;;;;;;;2.37;0.20;;;7.70;39.10;;;;;;4321918;32;20230;-44
2021/03/08 10:23:48;;;;;;;3.60;0.50;;;7.70;39.30;;;;;;4370580;32;20201;-41
2021/03/08 10:26:17;;;;;;;0.20;0.17;;;7.60;39.30;;;;;;4357889;32;20081;-41
2021/03/08 10:28:51;;;;;;;0.80;0.20;;;7.60;39.20;;;;;;4355382;32;20066;-42
2021/03/08 10:31:25;;;;;;;0.40;0.10;;;7.50;39.20;;;;;;4344509;32;20232;-41
2021/03/08 10:34:10;;;;;;;0.20;0.10;;;7.60;40.00;;;;;;4355655;32;20081;-41
2021/03/08 10:36:41;;;;;;;1.98;0.22;;;7.60;39.30;;;;;;4331868;32;20069;-41
2021/03/08 10:39:12;;;;;;;0.40;0.13;;;7.60;39.10;;;;;;4357555;32;20093;-39
2021/03/08 10:41:40;;;;;;;3.90;0.20;;;7.60;38.70;;;;;;4371945;32;20071;-42
2021/03/08 10:44:07;;;;;;;0.63;0.20;;;7.50;38.70;;;;;;4372057;32;20515;-42
2021/03/08 10:46:37;;;;;;;2.83;0.20;;;7.50;38.40;;;;;;4373221;32;20442;-43
2021/03/08 10:49:09;;;;;;;6.03;0.30;;;7.40;37.70;;;;;;4373430;32;20064;-42
2021/03/08 10:51:39;;;;;;;6.30;0.20;;;7.40;36.70;;;;;;4358112;32;20062;-39
2021/03/08 10:54:13;;;;;;;0.47;0.10;;;7.30;36.00;;;;;;4357882;32;20090;-40
2021/03/08 10:56:41;;;;;;;0.10;0.10;;;7.20;36.70;;;;;;4370685;32;20077;-37
2021/03/08 10:59:29;;;;;;;0.77;0.10;;;7.10;35.80;;;;;;4359019;32;20100;-38
2021/03/08 11:02:07;;;;;;;6.17;0.40;;;7.00;35.50;;;;;;4370579;32;20522;-39
2021/03/08 11:04:34;;;;;;;0.23;0.10;;;6.80;35.40;;;;;;4370419;32;20701;-40
2021/03/08 11:07:01;;;;;;;0.10;0.10;;;6.70;35.60;;;;;;4370858;32;20168;-36
2021/03/08 11:09:29;;;;;;;0.57;0.30;;;6.70;35.80;;;;;;4370575;32;20068;-38
2021/03/08 11:11:56;;;;;;;4.97;0.33;;;6.70;35.90;;;;;;4358613;32;20066;-39
2021/03/08 11:14:22;;;;;;;0.00;0.00;;;6.80;36.30;;;;;;4357839;32;20073;-38
2021/03/08 11:16:51;;;;;;;0.83;0.20;;;6.90;36.30;;;;;;4345739;32;20071;-40
2021/03/08 11:19:30;;;;;;;0.40;0.20;;;7.00;36.20;;;;;;4370747;32;20545;-38
2021/03/08 11:22:13;;;;;;;0.33;0.20;;;7.10;36.30;;;;;;4347082;32;20466;-36
2021/03/08 11:24:45;;;;;;;0.77;0.10;;;7.20;36.40;;;;;;4371799;32;20070;-37
2021/03/08 11:27:25;;;;;;;1.23;0.10;;;7.20;35.90;;;;;;4359227;32;20474;-40
2021/03/08 11:30:11;;;;;;;7.43;0.17;;;7.20;35.90;;;;;;4381316;32;20186;-40
2021/03/08 11:32:40;;;;;;;2.87;0.30;;;7.20;36.00;;;;;;4386273;32;20046;-37
2021/03/08 11:35:17;;;;;;;3.10;0.10;;;7.20;35.90;;;;;;4386385;32;20236;-40
2021/03/08 11:37:52;;;;;;;0.23;0.10;;;7.10;36.20;;;;;;4386728;32;20065;-42
2021/03/08 11:40:21;;;;;;;3.22;0.30;;;7.00;36.50;;;;;;4388970;32;20070;-41
2021/03/08 11:42:48;;;;;;;0.13;0.10;;;6.90;36.90;;;;;;4345486;32;20101;-40
2021/03/08 11:45:15;;;;;;;1.63;0.20;;;6.90;37.00;;;;;;4345686;32;20562;-41
2021/03/08 11:47:42;;;;;;;2.67;0.20;;;6.80;37.50;;;;;;4358423;32;20082;-42
2021/03/08 11:50:10;;;;;;;4.33;0.30;;;6.80;37.70;;;;;;4345744;32;20085;-39
2021/03/08 11:52:37;;;;;;;2.73;0.20;;;6.70;37.80;;;;;;4345511;32;20478;-42
2021/03/08 11:55:04;;;;;;;1.23;0.23;;;6.60;37.80;;;;;;4345982;32;20090;-42
2021/03/08 11:57:31;;;;;;;0.13;0.10;;;6.60;37.80;;;;;;4345808;32;20094;-41
2021/03/08 11:59:57;;;;;;;1.13;0.20;;;6.60;37.80;;;;;;4345717;32;20059;-42
2021/03/08 12:02:24;;;;;;;1.80;0.20;;;6.60;37.90;;;;;;4345466;32;20447;-41
2021/03/08 12:04:50;;;;;;;1.47;1.10;;;6.60;37.90;;;;;;4357732;32;20604;-39
2021/03/08 12:07:17;;;;;;;0.57;0.20;;;6.70;38.00;;;;;;4333529;32;20074;-46
2021/03/08 12:09:43;;;;;;;2.03;0.27;;;6.70;37.80;;;;;;4346353;32;20110;-37
2021/03/08 12:12:10;;;;;;;2.83;0.20;;;6.80;37.80;;;;;;4358104;32;20561;-38
2021/03/08 12:14:37;;;;;;;0.50;0.10;;;6.90;37.80;;;;;;4345931;32;20677;-38
2021/03/08 12:17:04;;;;;;;0.40;0.10;;;7.10;37.60;;;;;;4345528;32;20058;-42
2021/03/08 12:19:30;;;;;;;1.63;0.90;;;7.20;37.60;;;;;;4364480;32;20054;-40
2021/03/08 12:21:57;;;;;;;6.17;0.70;;;7.40;37.20;;;;;;4388730;32;20078;-39
2021/03/08 12:24:24;;;;;;;1.43;0.40;;;7.50;36.70;;;;;;4347387;32;20061;-42
2021/03/08 12:26:50;;;;;;;3.97;0.50;;;7.50;36.70;;;;;;4360416;32;20138;-39
2021/03/08 12:29:17;;;;;;;0.40;0.20;;;7.60;36.90;;;;;;4332871;32;20079;-42
2021/03/08 12:31:44;;;;;;;2.90;0.30;;;7.70;36.90;;;;;;4357528;32;20158;-39
2021/03/08 12:34:10;;;;;;;0.80;0.20;;;7.80;36.70;;;;;;4345539;32;20477;-40
2021/03/08 12:36:37;;;;;;;0.83;0.13;;;7.90;37.00;;;;;;4357272;32;20073;-41
2021/03/08 12:39:04;;;;;;;0.73;0.30;;;8.00;37.40;;;;;;4357923;32;20213;-41
2021/03/08 12:41:31;;;;;;;0.67;0.30;;;8.20;38.00;;;;;;4345529;32;20104;-39
2021/03/08 12:43:58;;;;;;;2.47;0.63;;;8.40;38.60;;;;;;4357354;32;20066;-41
2021/03/08 12:46:25;;;;;;;0.73;0.20;;;8.60;38.90;;;;;;4345083;32;20560;-40
2021/03/08 12:48:52;;;;;;;1.47;0.20;;;8.80;38.80;;;;;;4332093;32;20484;-41
2021/03/08 12:51:20;;;;;;;0.73;0.10;;;9.00;38.60;;;;;;4344810;32;20066;-43
2021/03/08 12:53:47;;;;;;;0.50;0.10;;;9.10;38.40;;;;;;4344974;32;20101;-41
2021/03/08 12:56:13;;;;;;;7.30;0.30;;;9.10;38.10;;;;;;4357412;32;20137;-39
2021/03/08 12:58:40;;;;;;;3.00;0.20;;;9.10;38.10;;;;;;4330303;33;20091;-37
2021/03/08 13:01:06;;;;;;;0.70;0.30;;;9.10;38.10;;;;;;4335966;32;20558;-41
2021/03/08 13:03:33;;;;;;;1.47;0.10;;;9.00;38.70;;;;;;4359932;32;20073;-40
2021/03/08 13:05:59;;;;;;;0.40;0.20;;;8.90;38.00;;;;;;4356910;32;20063;-41
2021/03/08 13:08:26;;;;;;;0.37;0.20;;;8.80;38.10;;;;;;4332254;32;20547;-39
2021/03/08 13:10:52;;;;;;;6.17;0.20;;;8.70;38.20;;;;;;4344885;32;20090;-41
2021/03/08 13:13:22;;;;;;;1.50;0.13;;;8.60;38.40;;;;;;4344673;32;20158;-39